createdAt,value
2023-01-09T00:01:46.065Z,15.82
2023-01-09T00:04:14.394Z,12.23
2023-01-09T00:06:43.670Z,21.17
2023-01-09T00:09:11.469Z,14.00
2023-01-09T00:11:39.105Z,22.23
2023-01-09T00:14:06.780Z,20.25
2023-01-09T00:16:34.510Z,19.70
2023-01-09T00:19:02.200Z,22.92
2023-01-09T00:21:30.074Z,18.05
2023-01-09T00:23:57.737Z,12.60
2023-01-09T00:26:25.429Z,10.52
2023-01-09T00:28:54.233Z,16.55
2023-01-09T00:31:22.556Z,8.85
2023-01-09T00:34:00.261Z,11.65
2023-01-09T00:36:28.350Z,11.80
2023-01-09T00:38:56.099Z,13.07
2023-01-09T00:41:25.842Z,7.50
2023-01-09T00:44:01.244Z,8.80
2023-01-09T00:46:39.389Z,12.15
2023-01-09T00:49:09.701Z,11.65
2023-01-09T00:51:38.840Z,7.10
2023-01-09T00:54:06.822Z,9.27
2023-01-09T00:56:36.222Z,9.18
2023-01-09T00:59:05.059Z,11.52
2023-01-09T01:01:32.752Z,8.98
2023-01-09T01:04:20.372Z,10.70
2023-01-09T01:07:06.359Z,8.00
2023-01-09T01:09:34.105Z,12.82
2023-01-09T01:12:07.175Z,11.02
2023-01-09T01:14:37.141Z,13.50
2023-01-09T01:17:05.854Z,12.43
2023-01-09T01:19:35.569Z,8.57
2023-01-09T01:22:03.560Z,10.83
2023-01-09T01:24:31.491Z,13.40
2023-01-09T01:26:59.159Z,10.23
2023-01-09T01:29:27.090Z,12.93
2023-01-09T01:31:54.947Z,14.57
2023-01-09T01:34:22.657Z,13.45
2023-01-09T01:36:50.304Z,16.52
2023-01-09T01:39:18.013Z,9.20
2023-01-09T01:41:45.739Z,16.08
2023-01-09T01:44:50.845Z,10.88
2023-01-09T01:47:20.985Z,16.15
2023-01-09T01:49:49.261Z,9.15
2023-01-09T01:52:19.427Z,11.20
2023-01-09T01:54:47.591Z,4.95
2023-01-09T01:57:15.564Z,15.45
2023-01-09T01:59:50.402Z,12.23
2023-01-09T02:02:21.226Z,10.00
2023-01-09T02:04:52.020Z,8.40
2023-01-09T02:07:19.842Z,10.05
2023-01-09T02:09:47.457Z,15.18
2023-01-09T02:12:23.890Z,10.32
2023-01-09T02:15:00.757Z,8.90
2023-01-09T02:18:02.309Z,12.45
2023-01-09T02:20:46.197Z,11.77
2023-01-09T02:23:25.833Z,10.25
2023-01-09T02:26:12.201Z,16.05
2023-01-09T02:29:24.574Z,12.95
2023-01-09T02:32:04.475Z,7.07
2023-01-09T02:34:34.836Z,5.22
2023-01-09T02:37:26.802Z,8.98
2023-01-09T02:40:09.548Z,11.30
2023-01-09T02:42:39.887Z,5.80
2023-01-09T02:45:07.672Z,10.27
2023-01-09T02:47:42.417Z,12.15
2023-01-09T02:50:19.255Z,7.57
2023-01-09T02:52:52.655Z,11.32
2023-01-09T02:55:22.676Z,10.10
2023-01-09T02:58:46.959Z,9.02
2023-01-09T03:01:38.462Z,4.85
2023-01-09T03:04:21.852Z,7.18
2023-01-09T03:06:58.844Z,7.03
2023-01-09T03:09:31.986Z,13.27
2023-01-09T03:12:07.556Z,9.20
2023-01-09T03:14:37.800Z,8.45
2023-01-09T03:17:10.401Z,8.55
2023-01-09T03:19:38.537Z,9.25
2023-01-09T03:22:08.348Z,13.95
2023-01-09T03:24:36.002Z,6.67
2023-01-09T03:27:03.618Z,7.63
2023-01-09T03:29:32.129Z,7.38
2023-01-09T03:31:59.884Z,7.85
2023-01-09T03:34:27.571Z,8.63
2023-01-09T03:36:55.395Z,6.43
2023-01-09T03:39:22.988Z,15.40
2023-01-09T03:41:50.654Z,13.35
2023-01-09T03:44:18.380Z,9.38
2023-01-09T03:46:46.200Z,9.70
2023-01-09T03:49:14.097Z,8.45
2023-01-09T03:51:41.756Z,22.40
2023-01-09T03:54:09.407Z,5.65
2023-01-09T03:56:37.019Z,13.23
2023-01-09T03:59:04.612Z,12.55
2023-01-09T04:01:32.483Z,11.90
2023-01-09T04:04:00.284Z,12.98
2023-01-09T04:06:28.122Z,8.27
2023-01-09T04:08:55.762Z,13.63
2023-01-09T04:11:23.434Z,16.90
2023-01-09T04:13:51.080Z,13.05
2023-01-09T04:16:18.834Z,12.30
2023-01-09T04:18:50.264Z,15.77
2023-01-09T04:21:27.541Z,14.32
2023-01-09T04:27:00.258Z,13.35
2023-01-09T04:29:46.473Z,12.48
2023-01-09T04:32:19.694Z,16.73
2023-01-09T04:37:47.119Z,15.32
2023-01-09T04:40:22.566Z,14.88
2023-01-09T04:43:14.028Z,17.08
2023-01-09T04:48:55.959Z,16.38
2023-01-09T04:51:34.829Z,18.23
2023-01-09T04:54:15.811Z,15.13
2023-01-09T04:56:52.216Z,14.30
2023-01-09T04:59:31.259Z,17.83
2023-01-09T05:02:41.820Z,13.65
2023-01-09T05:08:59.942Z,24.17
2023-01-09T05:12:05.875Z,19.23
2023-01-09T05:15:12.124Z,9.00
2023-01-09T05:20:52.392Z,16.02
2023-01-09T05:23:21.454Z,16.30
2023-01-09T05:25:50.756Z,17.02
2023-01-09T05:28:22.522Z,15.20
2023-01-09T05:30:51.407Z,16.70
2023-01-09T05:33:19.281Z,10.15
2023-01-09T05:35:49.071Z,12.07
2023-01-09T05:38:19.597Z,20.13
2023-01-09T05:40:50.292Z,14.73
2023-01-09T05:43:26.976Z,13.90
2023-01-09T05:45:54.720Z,17.95
2023-01-09T05:48:24.201Z,18.10
2023-01-09T05:50:58.634Z,21.42
2023-01-09T05:53:28.738Z,24.17
2023-01-09T05:56:00.660Z,13.93
2023-01-09T05:58:28.739Z,18.42
2023-01-09T06:00:58.377Z,17.02
2023-01-09T06:03:26.299Z,25.90
2023-01-09T06:05:54.096Z,13.77
2023-01-09T06:08:23.701Z,18.40
2023-01-09T06:10:52.879Z,18.90
2023-01-09T06:13:31.012Z,16.52
2023-01-09T06:15:59.326Z,18.70
2023-01-09T06:18:30.204Z,17.33
2023-01-09T06:20:59.471Z,19.27
2023-01-09T06:23:27.173Z,16.27
2023-01-09T06:25:58.797Z,16.02
2023-01-09T06:28:26.427Z,26.90
2023-01-09T06:31:09.233Z,13.48
2023-01-09T06:33:39.967Z,21.08
2023-01-09T06:36:08.126Z,19.95
2023-01-09T06:38:53.365Z,21.23
2023-01-09T06:41:23.646Z,19.45
2023-01-09T06:43:51.826Z,17.42
2023-01-09T06:46:21.190Z,15.43
2023-01-09T06:48:59.701Z,22.13
2023-01-09T06:51:34.778Z,17.75
2023-01-09T06:56:49.960Z,23.85
2023-01-09T06:59:17.622Z,16.70
2023-01-09T07:01:57.480Z,15.90
2023-01-09T07:04:31.410Z,15.57
2023-01-09T07:06:59.129Z,20.55
2023-01-09T07:09:27.694Z,18.13
2023-01-09T07:11:55.604Z,18.55
2023-01-09T07:14:34.837Z,17.20
2023-01-09T07:17:05.491Z,25.02
2023-01-09T07:19:33.909Z,18.63
2023-01-09T07:22:04.604Z,16.65
2023-01-09T07:24:32.263Z,17.17
2023-01-09T07:27:03.661Z,16.45
2023-01-09T07:29:31.775Z,18.88
2023-01-09T07:32:01.429Z,18.73
2023-01-09T07:34:34.941Z,13.30
2023-01-09T07:37:05.208Z,15.52
2023-01-09T07:39:33.944Z,18.00
2023-01-09T07:42:04.688Z,19.00
2023-01-09T07:44:33.384Z,13.32
2023-01-09T07:47:11.184Z,19.48
2023-01-09T07:49:42.943Z,16.60
2023-01-09T07:52:10.632Z,18.75
2023-01-09T07:54:50.838Z,15.18
2023-01-09T07:57:21.711Z,24.67
2023-01-09T07:59:55.438Z,13.38
2023-01-09T08:02:29.911Z,15.77
2023-01-09T08:04:59.109Z,17.60
2023-01-09T08:07:27.683Z,33.42
2023-01-09T08:10:07.043Z,18.00
2023-01-09T08:12:37.336Z,19.23
2023-01-09T08:15:13.147Z,12.10
2023-01-09T08:17:49.889Z,14.85
2023-01-09T08:20:39.837Z,17.98
2023-01-09T08:23:09.116Z,20.20
2023-01-09T08:26:05.888Z,13.38
2023-01-09T08:28:37.319Z,20.92
2023-01-09T08:31:10.143Z,19.73
2023-01-09T08:33:43.554Z,18.35
2023-01-09T08:38:53.262Z,14.82
2023-01-09T08:41:39.780Z,19.63
2023-01-09T08:44:27.046Z,17.98
2023-01-09T08:47:07.799Z,14.55
2023-01-09T08:49:44.951Z,19.08
2023-01-09T08:52:23.070Z,15.70
2023-01-09T08:54:53.282Z,16.98
2023-01-09T08:57:36.504Z,22.23
2023-01-09T09:00:15.285Z,15.70
2023-01-09T09:02:48.161Z,15.02
2023-01-09T09:05:26.953Z,20.77
2023-01-09T09:07:56.718Z,21.02
2023-01-09T09:10:29.951Z,15.83
2023-01-09T09:13:03.112Z,14.80
2023-01-09T09:15:42.085Z,14.20
2023-01-09T09:18:26.830Z,16.30
2023-01-09T09:21:11.377Z,16.40
2023-01-09T09:23:53.419Z,18.63
2023-01-09T09:26:27.115Z,13.27
2023-01-09T09:29:02.085Z,18.25
2023-01-09T09:31:34.073Z,16.73
2023-01-09T09:34:05.144Z,10.32
2023-01-09T09:36:35.805Z,19.23
2023-01-09T09:39:11.848Z,12.23
2023-01-09T09:42:38.285Z,10.95
2023-01-09T09:45:24.886Z,15.55
2023-01-09T09:48:06.718Z,14.18
2023-01-09T09:51:02.890Z,9.55
2023-01-09T09:53:40.451Z,14.88
2023-01-09T09:56:16.229Z,15.73
2023-01-09T09:58:50.831Z,20.65
2023-01-09T10:01:49.413Z,15.35
2023-01-09T10:04:20.387Z,10.05
2023-01-09T10:06:57.767Z,13.70
2023-01-09T10:09:49.295Z,15.98
2023-01-09T10:12:48.024Z,19.25
2023-01-09T10:15:50.248Z,15.02
2023-01-09T10:18:40.960Z,10.85
2023-01-09T10:21:39.676Z,17.05
2023-01-09T10:24:31.857Z,11.05
2023-01-09T10:27:38.166Z,15.27
2023-01-09T10:30:30.258Z,10.23
2023-01-09T10:33:32.124Z,13.77
2023-01-09T10:36:29.895Z,5.88
2023-01-09T10:39:24.418Z,9.30
2023-01-09T10:42:35.337Z,9.60
2023-01-09T10:45:29.946Z,14.20
2023-01-09T10:48:05.564Z,7.35
2023-01-09T10:51:00.019Z,13.98
2023-01-09T10:53:39.889Z,10.95
2023-01-09T10:56:29.800Z,7.57
2023-01-09T10:59:01.802Z,7.90
2023-01-09T11:01:38.706Z,9.95
2023-01-09T11:04:44.394Z,10.85
2023-01-09T11:07:25.416Z,11.05
2023-01-09T11:10:18.622Z,6.20
2023-01-09T11:12:57.510Z,5.68
2023-01-09T11:15:32.533Z,6.75
2023-01-09T11:18:26.956Z,5.70
2023-01-09T11:20:55.346Z,5.63
2023-01-09T11:23:38.232Z,6.15
2023-01-09T11:26:31.434Z,10.02
2023-01-09T11:29:23.758Z,9.85
2023-01-09T11:32:00.716Z,6.70
2023-01-09T11:34:48.156Z,4.40
2023-01-09T11:38:13.641Z,9.77
2023-01-09T11:41:09.314Z,4.97
2023-01-09T11:43:39.794Z,7.70
2023-01-09T11:46:34.064Z,3.65
2023-01-09T11:49:45.715Z,7.53
2023-01-09T11:52:25.415Z,8.48
2023-01-09T11:54:58.982Z,8.38
2023-01-09T11:57:38.933Z,9.07
2023-01-09T12:00:30.847Z,10.35
2023-01-09T12:03:15.745Z,4.70
2023-01-09T12:06:10.741Z,5.47
2023-01-09T12:09:03.686Z,9.27
2023-01-09T12:12:05.119Z,6.78
2023-01-09T12:15:15.827Z,6.43
2023-01-09T12:18:04.480Z,8.55
2023-01-09T12:24:16.589Z,8.70
2023-01-09T12:30:07.463Z,11.82
2023-01-09T12:38:52.837Z,7.53
2023-01-09T12:41:26.112Z,6.07
2023-01-09T12:47:30.798Z,9.30
2023-01-09T12:50:24.212Z,5.88
2023-01-09T12:52:52.458Z,7.32
2023-01-09T12:55:30.139Z,8.15
2023-01-09T13:03:41.264Z,11.05
2023-01-09T13:06:16.742Z,9.65
2023-01-09T13:08:55.832Z,6.88
2023-01-09T13:12:09.013Z,10.73
2023-01-09T13:15:09.779Z,3.75
2023-01-09T13:18:04.905Z,5.13
2023-01-09T13:21:05.970Z,11.60
2023-01-09T13:24:10.653Z,9.27
2023-01-09T13:29:22.080Z,5.00
2023-01-09T13:32:26.644Z,5.95
2023-01-09T13:35:01.475Z,10.48
2023-01-09T13:37:37.226Z,9.25
2023-01-09T13:40:38.575Z,4.97
2023-01-09T13:44:03.511Z,12.95
2023-01-09T13:46:45.111Z,8.95
2023-01-09T13:49:42.114Z,9.68
2023-01-09T13:52:45.637Z,9.30
2023-01-09T13:55:23.927Z,15.00
2023-01-09T13:58:15.192Z,5.53
2023-01-09T14:00:51.099Z,6.97
2023-01-09T14:03:31.727Z,6.68
2023-01-09T14:05:59.496Z,9.98
2023-01-09T14:08:29.584Z,11.68
2023-01-09T14:11:01.696Z,12.57
2023-01-09T14:13:43.566Z,10.63
2023-01-09T14:16:34.847Z,18.45
2023-01-09T14:19:22.270Z,18.08
2023-01-09T14:21:56.223Z,9.15
2023-01-09T14:24:46.726Z,8.55
2023-01-09T14:27:52.927Z,9.25
2023-01-09T14:30:26.925Z,11.20
2023-01-09T14:33:19.202Z,9.82
2023-01-09T14:36:24.115Z,16.38
2023-01-09T14:39:25.011Z,9.82
2023-01-09T14:42:30.110Z,12.13
2023-01-09T14:51:49.552Z,13.57
2023-01-09T14:54:37.986Z,11.95
2023-01-09T14:57:24.490Z,11.63
2023-01-09T15:00:05.166Z,10.00
2023-01-09T15:02:37.716Z,15.30
2023-01-09T15:05:12.300Z,9.00
2023-01-09T15:07:46.474Z,9.27
2023-01-09T15:10:20.989Z,13.20
2023-01-09T15:12:51.721Z,12.82
2023-01-09T15:17:55.905Z,12.18
2023-01-09T15:20:27.455Z,12.27
2023-01-09T15:22:58.023Z,7.07
2023-01-09T15:25:38.828Z,11.75
2023-01-09T15:28:27.716Z,10.73
2023-01-09T15:31:17.947Z,18.98
2023-01-09T15:33:53.080Z,13.43
2023-01-09T15:36:34.904Z,11.45
2023-01-09T15:39:31.478Z,10.75
2023-01-09T15:42:22.899Z,14.38
2023-01-09T15:44:53.894Z,10.13
2023-01-09T15:47:29.420Z,12.63
2023-01-09T15:49:57.861Z,11.68
2023-01-09T15:52:26.521Z,15.15
2023-01-09T15:54:54.364Z,13.85
2023-01-09T15:57:25.899Z,15.43
2023-01-09T16:00:16.135Z,15.57
2023-01-09T16:03:03.741Z,12.65
2023-01-09T16:05:33.445Z,16.00
2023-01-09T16:08:02.311Z,13.15
2023-01-09T16:10:36.400Z,13.30
2023-01-09T16:13:07.181Z,12.90
2023-01-09T16:15:35.365Z,9.98
2023-01-09T16:18:17.955Z,16.13
2023-01-09T16:20:46.042Z,16.40
2023-01-09T16:23:30.019Z,15.73
2023-01-09T16:26:33.373Z,19.98
2023-01-09T16:29:40.036Z,21.23
2023-01-09T16:32:19.047Z,23.02
2023-01-09T16:34:55.035Z,14.02
2023-01-09T16:37:24.268Z,15.52
2023-01-09T16:40:14.172Z,21.52
2023-01-09T16:43:02.810Z,14.57
2023-01-09T16:45:46.079Z,14.13
2023-01-09T16:48:21.257Z,18.48
2023-01-09T16:50:49.375Z,12.63
2023-01-09T16:53:27.309Z,15.45
2023-01-09T16:56:16.500Z,19.52
2023-01-09T16:58:48.223Z,20.48
2023-01-09T17:01:16.524Z,22.15
2023-01-09T17:03:44.579Z,20.80
2023-01-09T17:06:22.667Z,15.65
2023-01-09T17:08:51.647Z,13.13
2023-01-09T17:11:22.368Z,23.15
2023-01-09T17:13:50.852Z,16.20
2023-01-09T17:16:19.600Z,14.82
2023-01-09T17:18:47.333Z,19.42
2023-01-09T17:21:21.561Z,21.23
2023-01-09T17:24:09.805Z,13.32
2023-01-09T17:26:59.900Z,15.90
2023-01-09T17:29:28.575Z,16.38
2023-01-09T17:31:57.328Z,14.38
2023-01-09T17:34:25.080Z,25.05
2023-01-09T17:36:55.668Z,19.13
2023-01-09T17:41:51.384Z,19.13
2023-01-09T17:44:19.031Z,23.38
2023-01-09T17:46:46.873Z,19.27
2023-01-09T17:49:17.452Z,11.75
2023-01-09T17:51:45.570Z,14.43
2023-01-09T17:54:14.014Z,15.20
2023-01-09T17:56:45.427Z,22.85
2023-01-09T17:59:14.852Z,19.42
2023-01-09T18:01:44.121Z,15.18
2023-01-09T18:04:12.073Z,16.40
2023-01-09T18:06:42.206Z,14.10
2023-01-09T18:09:15.758Z,26.00
2023-01-09T18:11:44.707Z,17.58
2023-01-09T18:14:13.824Z,14.07
2023-01-09T18:16:42.364Z,13.45
2023-01-09T18:19:11.413Z,14.57
2023-01-09T18:21:52.569Z,15.57
2023-01-09T18:24:20.389Z,14.02
2023-01-09T18:26:48.026Z,14.95
2023-01-09T18:29:15.687Z,13.07
2023-01-09T18:31:43.493Z,14.77
2023-01-09T18:34:11.323Z,12.65
2023-01-09T18:36:38.987Z,12.93
2023-01-09T18:39:21.419Z,15.80
2023-01-09T18:41:52.277Z,13.20
2023-01-09T18:44:57.048Z,21.35
2023-01-09T18:47:37.241Z,13.43
2023-01-09T18:50:08.194Z,15.40
2023-01-09T18:55:06.277Z,12.85
2023-01-09T18:57:42.563Z,14.85
2023-01-09T19:00:11.711Z,15.82
2023-01-09T19:02:39.581Z,15.43
2023-01-09T19:05:07.464Z,13.02
2023-01-09T19:07:35.178Z,14.45
2023-01-09T19:10:02.831Z,15.23
2023-01-09T19:12:30.569Z,19.23
2023-01-09T19:14:58.389Z,15.07
2023-01-09T19:17:30.779Z,18.35
2023-01-09T19:20:13.114Z,17.35
2023-01-09T19:23:01.506Z,17.33
2023-01-09T19:26:08.935Z,18.05
2023-01-09T19:28:38.978Z,14.55
2023-01-09T19:31:06.687Z,19.20
2023-01-09T19:33:34.355Z,27.70
2023-01-09T19:36:02.099Z,20.63
2023-01-09T19:38:29.969Z,19.10
2023-01-09T19:40:57.846Z,16.67
2023-01-09T19:43:28.528Z,20.48
2023-01-09T19:48:27.117Z,21.17
2023-01-09T19:53:30.908Z,16.65
2023-01-09T19:56:14.854Z,18.08
2023-01-09T19:58:47.452Z,21.85
2023-01-09T20:01:18.678Z,23.67
2023-01-09T20:03:50.913Z,17.27
2023-01-09T20:06:24.159Z,25.70
2023-01-09T20:08:54.842Z,21.40
2023-01-09T20:13:51.228Z,21.45
2023-01-09T20:16:28.175Z,19.02
2023-01-09T20:19:00.935Z,24.27
2023-01-09T20:21:30.243Z,16.55
2023-01-09T20:24:00.568Z,27.77
2023-01-09T20:26:29.416Z,24.42
2023-01-09T20:28:58.364Z,26.63
2023-01-09T20:31:28.413Z,19.10
2023-01-09T20:33:56.756Z,19.67
2023-01-09T20:36:31.892Z,30.10
2023-01-09T20:39:02.741Z,21.70
2023-01-09T20:41:31.521Z,23.30
2023-01-09T20:43:59.205Z,17.17
2023-01-09T20:46:33.677Z,28.52
2023-01-09T20:49:06.566Z,17.63
2023-01-09T20:51:36.251Z,22.23
2023-01-09T20:54:04.159Z,24.05
2023-01-09T20:59:12.640Z,24.13
2023-01-09T21:01:46.398Z,27.55
2023-01-09T21:04:14.312Z,30.63
2023-01-09T21:06:43.565Z,36.35
2023-01-09T21:09:11.405Z,27.98
2023-01-09T21:11:39.045Z,23.00
2023-01-09T21:14:06.943Z,19.52
2023-01-09T21:16:34.691Z,25.63
2023-01-09T21:19:02.387Z,25.60
2023-01-09T21:21:35.674Z,24.90
2023-01-09T21:24:04.675Z,29.73
2023-01-09T21:26:32.409Z,23.08
2023-01-09T21:29:01.583Z,22.00
2023-01-09T21:31:34.617Z,20.05
2023-01-09T21:34:05.068Z,24.10
2023-01-09T21:36:33.038Z,27.77
2023-01-09T21:39:44.612Z,35.40
2023-01-09T21:42:30.739Z,34.75
2023-01-09T21:45:16.754Z,33.00
2023-01-09T21:47:44.375Z,29.98
2023-01-09T21:50:18.053Z,25.30
2023-01-09T21:52:48.791Z,33.78
2023-01-09T21:55:16.551Z,27.65
2023-01-09T21:57:56.691Z,37.85
2023-01-09T22:00:36.523Z,36.42
2023-01-09T22:03:37.710Z,23.05
2023-01-09T22:06:24.968Z,38.95
2023-01-09T22:08:57.881Z,24.03
2023-01-09T22:11:45.729Z,29.48
2023-01-09T22:14:25.917Z,27.63
2023-01-09T22:17:08.103Z,23.08
2023-01-09T22:19:43.578Z,36.63
2023-01-09T22:22:17.644Z,25.55
2023-01-09T22:24:54.192Z,25.85
2023-01-09T22:27:38.436Z,32.10
2023-01-09T22:30:29.071Z,31.20
2023-01-09T22:33:49.620Z,25.65
2023-01-09T22:36:28.592Z,31.02
2023-01-09T22:39:01.616Z,30.40
2023-01-09T22:41:41.256Z,33.67
2023-01-09T22:44:13.636Z,25.33
2023-01-09T22:46:46.472Z,32.95
2023-01-09T22:49:18.515Z,35.65
2023-01-09T22:51:52.280Z,23.63
2023-01-09T22:54:29.052Z,28.50
2023-01-09T22:57:04.774Z,29.77
2023-01-09T22:59:32.674Z,22.30
2023-01-09T23:02:13.097Z,25.65
2023-01-09T23:04:41.117Z,25.48
2023-01-09T23:07:22.386Z,25.98
2023-01-09T23:09:53.230Z,28.77
2023-01-09T23:12:28.473Z,25.25
2023-01-09T23:14:58.449Z,28.55
2023-01-09T23:19:57.170Z,37.83
2023-01-09T23:22:29.672Z,32.22
2023-01-09T23:24:58.529Z,37.10
2023-01-09T23:27:26.503Z,33.53
2023-01-09T23:29:55.979Z,29.77
2023-01-09T23:32:23.941Z,30.17
2023-01-09T23:34:51.937Z,28.90
2023-01-09T23:37:22.231Z,26.95
2023-01-09T23:39:55.461Z,28.30
2023-01-09T23:42:49.796Z,37.70
2023-01-09T23:45:17.781Z,28.40
2023-01-09T23:47:45.638Z,25.50
2023-01-09T23:50:13.551Z,26.88
2023-01-09T23:52:41.374Z,24.65
2023-01-09T23:55:11.099Z,27.92
2023-01-09T23:57:39.016Z,33.60
